METAR Data
IDs: Format: Raw Decoded Include TAF

Data at: 1041 UTC 28 Jul 2021

KCCB 281035Z AUTO 00000KT 10SM FEW042 23/13 A3001 RMK AO2
KCCB 281015Z AUTO 00000KT 10SM CLR 23/13 A3001 RMK AO2
KCCB 280955Z AUTO 00000KT 10SM CLR 23/13 A3001 RMK AO2
KCCB 280935Z AUTO 00000KT 10SM CLR 23/14 A3001 RMK AO2
KCCB 280915Z AUTO 00000KT 10SM CLR 24/14 A3001 RMK AO2
KCCB 280855Z AUTO 00000KT 10SM CLR 24/13 A3002 RMK AO2
KCCB 280835Z AUTO 00000KT 10SM CLR 24/15 A3002 RMK AO2
KCCB 280815Z AUTO 00000KT 10SM CLR 24/15 A3001 RMK AO2
KCCB 280755Z AUTO 02003KT 10SM CLR 23/16 A3002 RMK AO2
KCCB 280735Z AUTO 00000KT 10SM CLR 23/15 A3003 RMK AO2
KCCB 280715Z AUTO 00000KT 10SM FEW050 23/16 A3002 RMK AO2
KCCB 280655Z AUTO 00000KT 10SM FEW050 24/15 A3002 RMK AO2
KCCB 280635Z AUTO 00000KT 10SM CLR 24/16 A3003 RMK AO2
KCCB 280615Z AUTO 000KT 10SM CLR 24/16 A3003 RMK AO2
KCCB 280555Z AUTO 34003KT 10SM CLR 24/16 A3003 RMK AO2
KCCB 280535Z AUTO 00000KT 10SM CLR 23/16 A3003 RMK AO2
KCCB 280515Z AUTO 29003KT 10SM FEW060 23/16 A3004 RMK AO2
KCCB 280455Z AUTO 00000KT 10SM BKN060 23/15 A3004 RMK AO2
KCCB 280435Z AUTO 00000KT 10SM BKN060 23/15 A3003 RMK AO2
KCCB 280415Z AUTO 27004KT 10SM SCT060 24/15 A3002 RMK AO2
KCCB 280355Z AUTO 28007KT 10SM SCT060 24/15 A3001 RMK AO2
KCCB 280335Z AUTO 26008KT 10SM CLR 25/15 A3001 RMK AO2
KCCB 280315Z AUTO 25007KT 10SM CLR 25/14 A3000 RMK AO2
KCCB 280255Z AUTO 26010KT 10SM CLR 26/14 A2998 RMK AO2
KCCB 280235Z AUTO 27012G18KT 10SM CLR 27/13 A2998 RMK AO2
KCCB 280215Z AUTO 26013KT 10SM CLR 28/12 A2997 RMK AO2
KCCB 280155Z AUTO 27015KT 10SM CLR 28/11 A2997 RMK AO2
KCCB 280135Z AUTO 26017KT 10SM CLR 29/05 A2996 RMK AO2
KCCB 280115Z AUTO 26015KT 10SM CLR 30/05 A2996 RMK AO2
KCCB 280055Z AUTO 26016KT 10SM CLR 30/07 A2996 RMK AO2
KCCB 280035Z AUTO 27016KT 10SM CLR 31/08 A2996 RMK AO2
KCCB 280015Z AUTO 26016KT 10SM CLR 31/11 A2996 RMK AO2
KCCB 272355Z AUTO 26015KT 10SM CLR 31/13 A2997 RMK AO2
KCCB 272335Z AUTO 27013G19KT 10SM CLR 31/15 A2997 RMK AO2
KCCB 272315Z AUTO 25013G19KT 10SM CLR 32/16 A2997 RMK AO2
KCCB 272255Z AUTO 25013G20KT 9SM CLR 32/17 A2997 RMK AO2
KCCB 272235Z AUTO 27016KT 9SM CLR 32/17 A2998 RMK AO2
KCCB 272215Z AUTO 26014KT 9SM CLR 32/17 A2998 RMK AO2
KCCB 272155Z AUTO 26015KT 9SM CLR 32/17 A2999 RMK AO2
KCCB 272135Z AUTO 26014KT 8SM CLR 32/17 A2999 RMK AO2
KCCB 272115Z AUTO 27012KT 8SM CLR 31/17 A2999 RMK AO2
KCCB 272055Z AUTO 27011G17KT 8SM CLR 31/17 A3000 RMK AO2
KCCB 272035Z AUTO 25011G16KT 7SM CLR 31/18 A3000 RMK AO2
KCCB 272015Z AUTO 25010KT 7SM CLR 30/18 A3000 RMK AO2
KCCB 271955Z AUTO 25009KT 8SM CLR 30/18 A3001 RMK AO2
KCCB 271935Z AUTO 26007KT 7SM CLR 29/18 A3001 RMK AO2
KCCB 271915Z AUTO 25008KT 210V280 7SM CLR 29/18 A3001 RMK AO2
KCCB 271855Z AUTO 27007KT 7SM CLR 28/18 A3002 RMK AO2
KCCB 271835Z AUTO 24007KT 6SM HZ CLR 28/18 A3002 RMK AO2
KCCB 271815Z AUTO 23006KT 7SM CLR 28/18 A3001 RMK AO2
KCCB 271755Z AUTO 25005KT 7SM CLR 27/18 A3001 RMK AO2
KCCB 271735Z AUTO 23005KT 7SM CLR 26/18 A3001 RMK AO2
KCCB 271715Z AUTO 00000KT 6SM HZ CLR 26/18 A3001 RMK AO2
KCCB 271655Z AUTO 24004KT 6SM HZ CLR 25/18 A3001 RMK AO2
KCCB 271635Z AUTO 00000KT 5SM HZ CLR 24/17 A3001 RMK AO2
KCCB 271615Z AUTO 00000KT 6SM HZ CLR 24/17 A3001 RMK AO2
KCCB 271555Z AUTO 00000KT 6SM HZ CLR 23/17 A3001 RMK AO2
KCCB 271535Z AUTO 00000KT 5SM HZ CLR 22/17 A3001 RMK AO2
KCCB 271515Z AUTO 00000KT 5SM HZ CLR 22/17 A3000 RMK AO2
KCCB 271455Z AUTO 00000KT 5SM HZ CLR 21/17 A3000 RMK AO2
KCCB 271435Z AUTO 00000KT 5SM HZ CLR 21/17 A3000 RMK AO2
KCCB 271415Z AUTO 00000KT 5SM HZ CLR 20/17 A3000 RMK AO2
KCCB 271355Z AUTO 00000KT 5SM HZ CLR 20/17 A2999 RMK AO2
KCCB 271335Z AUTO 00000KT 5SM HZ CLR 20/17 A2999 RMK AO2
KCCB 271315Z AUTO 00000KT 6SM HZ CLR 20/17 A2999 RMK AO2
KCCB 271255Z AUTO 00000KT 7SM CLR 19/17 A2999 RMK AO2
KCCB 271235Z AUTO 00000KT 7SM FEW046 20/17 A2998 RMK AO2
KCCB 271215Z AUTO 00000KT 7SM FEW044 SCT049 20/17 A2998 RMK AO2
KCCB 271155Z AUTO 00000KT 6SM HZ CLR 20/17 A2998 RMK AO2
KCCB 271135Z AUTO 00000KT 7SM CLR 20/17 A2998 RMK AO2
KCCB 271115Z AUTO 12003KT 7SM CLR 20/17 A2998 RMK AO2
KCCB 271055Z AUTO 01004KT 7SM CLR 19/18 A2997 RMK AO2
KCCB 271035Z AUTO 00000KT 7SM CLR 19/17 A2998 RMK AO2
KCCB 271015Z AUTO 00000KT 7SM CLR 20/17 A2997 RMK AO2
KCCB 270955Z AUTO 00000KT 7SM CLR 19/17 A2997 RMK AO2
KCCB 270935Z AUTO 00000KT 7SM CLR 20/17 A2997 RMK AO2
KCCB 270915Z AUTO 00000KT 7SM CLR 20/17 A2997 RMK AO2
KCCB 270855Z AUTO 00000KT 7SM FEW032 FEW040 20/17 A2998 RMK AO2
KCCB 270835Z AUTO 00000KT 7SM FEW030 20/17 A2998 RMK AO2
KCCB 270815Z AUTO 00000KT 7SM CLR 20/17 A2998 RMK AO2
KCCB 270755Z AUTO 00000KT 8SM CLR 20/17 A2999 RMK AO2
KCCB 270735Z AUTO 00000KT 7SM CLR 20/17 A2999 RMK AO2
KCCB 270715Z AUTO 00000KT 7SM FEW042 FEW050 20/17 A3000 RMK AO2
KCCB 270655Z AUTO 30004KT 7SM FEW026 SCT042 SCT048 20/17 A3000 RMK AO2
KCCB 270635Z AUTO 28003KT 7SM FEW026 SCT034 SCT042 20/17 A3000 RMK AO2
KCCB 270615Z AUTO 27004KT 7SM FEW025 SCT032 SCT049 20/17 A3001 RMK AO2
KCCB 270555Z AUTO 27004KT 8SM FEW025 FEW031 FEW043 20/17 A3001 RMK AO2
KCCB 270535Z AUTO 25005KT 8SM CLR 20/17 A3001 RMK AO2
KCCB 270515Z AUTO 27005KT 8SM CLR 21/17 A3001 RMK AO2
KCCB 270455Z AUTO 27005KT 10SM CLR 21/17 A3000 RMK AO2
KCCB 270435Z AUTO 26007KT 10SM FEW027 FEW033 FEW060 21/17 A3000 RMK AO2
KCCB 270415Z AUTO 27007KT 10SM CLR 21/17 A2999 RMK AO2
KCCB 270355Z AUTO 26006KT 10SM CLR 21/17 A2998 RMK AO2
KCCB 270335Z AUTO 26007KT 10SM FEW016 22/17 A2998 RMK AO2
KCCB 270315Z AUTO 26008KT 9SM SCT016 22/17 A2997 RMK AO2
KCCB 270255Z AUTO 25010KT 9SM FEW016 22/17 A2996 RMK AO2
KCCB 270235Z AUTO 25011KT 9SM CLR 23/17 A2994 RMK AO2
KCCB 270215Z AUTO 26012G17KT 9SM CLR 23/17 A2994 RMK AO2
KCCB 270155Z AUTO 26012G17KT 8SM CLR 25/17 A2993 RMK AO2
KCCB 270135Z AUTO 27012G17KT 7SM CLR 24/17 A2992 RMK AO2
KCCB 270115Z AUTO 26011G18KT 7SM CLR 25/17 A2993 RMK AO2
KCCB 270055Z AUTO 25014KT 7SM CLR 25/18 A2992 RMK AO2
KCCB 270035Z AUTO 27013KT 7SM CLR 26/18 A2993 RMK AO2
KCCB 270015Z AUTO 26013G19KT 7SM CLR 26/18 A2993 RMK AO2
KCCB 262355Z AUTO 28014G20KT 6SM HZ CLR 26/18 A2994 RMK AO2
KCCB 262335Z AUTO 27014KT 7SM CLR 27/18 A2994 RMK AO2
KCCB 262315Z AUTO 28015KT 6SM HZ CLR 27/18 A2994 RMK AO2
KCCB 262255Z AUTO 28012KT 6SM HZ CLR 27/19 A2994 RMK AO2